Fryeburg, ME

2:35 AM EDT on April 30, 2017 (GMT -0400)
Eastern Slopes Regional

Weather History for KIZG - October, 2010

Change the Weather History Date:

Friday, October 15, 2010

  Actual Average Record
Temperature  
Mean Temperature 46 °F -  
Max Temperature 50 °F 57 °F 77 °F (2014)
Min Temperature 44 °F 32 °F 24 °F (2016)
Degree Days  
Heating Degree Days 19    
Moisture  
Dew Point 46 °F    
Average Humidity 97    
Maximum Humidity 100    
Minimum Humidity 93    
Precipitation  
Precipitation 1.79 in - - ()
Sea Level Pressure  
Sea Level Pressure 29.23 in    
Wind  
Wind Speed 7 mph (North)    
Max Wind Speed 17 mph    
Max Gust Speed 29 mph    
Visibility 5 miles    
Events Rain    
Averages and records for this station are not official NWS values.
T = Trace of Precipitation, MM = Missing Value Source: NWS Daily Summary

Daily Weather History Graph

Daily Weather History Graph

Search for Another Location

Airport or City:

Trip Planner

Search our weather history database for the weather conditions in past years. The results will help you decide how hot, cold, wet, or windy it might be!

Date:

Astronomy

Oct. 15, 2010 Rise Set
Actual Time 6:58 AM EDT 6:00 PM EDT
Civil Twilight 6:29 AM EDT 6:29 PM EDT
Nautical Twilight 5:55 AM EDT 7:02 PM EDT
Astronomical Twilight 5:22 AM EDT 7:35 PM EDT
Moon 2:34 PM EDT (10/15) No Moon Set
Length of Visible Light 11h 59m
Length of Day
11h 01m
First Quarter, 57% of the Moon is Illuminated
Oct 15
First Quarter
Oct 22
Full
Oct 30
Last Quarter
Nov 6
New
Nov 13
First Quarter

Hourly Weather History & Observations

Time (EDT) Temp. Windchill Dew Point Humidity Pressure Visibility Wind Dir Wind Speed Gust Speed Precip Events Conditions
12:52 AM 48.2 °F - 46.4 °F 93% 29.76 in 10.0 mi Variable 3.5 mph - 0.01 in   Overcast
12:54 AM 48.0 °F - 46.9 °F 96% 29.76 in 10.0 mi Calm Calm - 0.01 in   Overcast
1:05 AM 48.2 °F - 46.4 °F 93% 29.75 in 10.0 mi North 4.6 mph - N/A   Overcast
1:54 AM 48.0 °F - 46.9 °F 96% 29.75 in 10.0 mi Calm Calm - 0.00 in Rain Light Rain
2:13 AM 48.2 °F - 46.4 °F 93% 29.72 in 8.0 mi North 5.8 mph - 0.02 in Rain Light Rain
2:35 AM 48.2 °F - 46.4 °F 93% 29.70 in 10.0 mi Variable 3.5 mph - 0.03 in Rain Light Rain
2:51 AM 46.4 °F 42.9 °F 46.4 °F 100% 29.68 in 7.0 mi North 6.9 mph - 0.05 in Rain Light Rain
2:54 AM 46.9 °F - 46.0 °F 97% 29.68 in 7.0 mi North 5.8 mph - 0.05 in Rain Light Rain
3:08 AM 46.4 °F 43.5 °F 46.4 °F 100% 29.66 in 6.0 mi North 5.8 mph - 0.02 in Rain Light Rain
3:22 AM 46.4 °F 44.3 °F 46.4 °F 100% 29.64 in 6.0 mi Variable 4.6 mph - 0.04 in Rain Light Rain
3:54 AM 48.0 °F - 46.9 °F 96% 29.60 in 8.0 mi NNE 8.1 mph - 0.08 in Rain Light Rain
4:54 AM 46.9 °F - 46.9 °F 100% 29.53 in 5.0 mi North 6.9 mph - 0.08 in Rain Rain
5:54 AM 46.9 °F - 46.0 °F 97% 29.44 in 4.0 mi North 9.2 mph 19.6 mph 0.17 in Rain Rain
6:54 AM 46.9 °F - 46.0 °F 97% 29.37 in 4.0 mi Variable 6.9 mph - 0.24 in Rain Rain
7:54 AM 48.0 °F - 46.0 °F 93% 29.28 in 3.0 mi NNE 11.5 mph 24.2 mph 0.29 in Rain Rain
8:54 AM 48.0 °F - 46.9 °F 96% 29.21 in 2.5 mi North 9.2 mph 20.7 mph 0.28 in Rain Rain
9:10 AM 48.2 °F - 46.4 °F 93% 29.19 in 4.0 mi NNE 8.1 mph 21.9 mph 0.03 in Rain Light Rain
9:25 AM 48.2 °F - 46.4 °F 93% 29.19 in 2.5 mi NNE 10.4 mph 18.4 mph 0.07 in Rain Rain
9:45 AM 48.2 °F - 48.2 °F 100% 29.17 in 3.0 mi North 9.2 mph - 0.11 in Rain Light Rain
9:54 AM 48.9 °F - 48.0 °F 97% 29.17 in 2.5 mi North 11.5 mph 20.7 mph 0.13 in Rain Light Rain
10:44 AM 48.2 °F - 48.2 °F 100% 29.13 in 3.0 mi NNE 10.4 mph 19.6 mph 0.06 in Rain Light Rain
10:54 AM 48.9 °F - 48.0 °F 97% 29.13 in 3.0 mi North 11.5 mph 20.7 mph 0.07 in Rain Light Rain
11:01 AM 48.2 °F - 48.2 °F 100% 29.12 in 2.0 mi NNE 8.1 mph 20.7 mph 0.01 in Rain Light Rain
11:54 AM 48.9 °F - 48.0 °F 97% 29.08 in 2.5 mi NNE 13.8 mph 28.8 mph 0.06 in Rain Light Rain
12:08 PM 48.2 °F - 48.2 °F 100% 29.07 in 3.0 mi NNE 11.5 mph 23.0 mph 0.00 in Rain Light Rain
12:15 PM 48.2 °F - 48.2 °F 100% 29.07 in 2.5 mi NNE 12.7 mph 20.7 mph 0.01 in Rain Light Rain
12:36 PM 48.2 °F - 48.2 °F 100% 29.05 in 2.0 mi NNE 8.1 mph 20.7 mph 0.02 in Rain Light Rain
12:43 PM 48.2 °F - 48.2 °F 100% 29.04 in 1.8 mi NNE 9.2 mph 24.2 mph 0.02 in Rain Light Rain
12:54 PM 48.9 °F - 48.0 °F 97% 29.04 in 1.8 mi Variable 6.9 mph 18.4 mph 0.03 in Rain Light Rain
1:02 PM 48.2 °F - 48.2 °F 100% 29.03 in 2.0 mi NNE 11.5 mph 21.9 mph 0.00 in Rain Light Rain
1:46 PM 48.2 °F - 48.2 °F 100% 29.01 in 4.0 mi North 17.3 mph 25.3 mph 0.02 in Rain Light Rain
1:48 PM 48.2 °F - 48.2 °F 100% 29.01 in 4.0 mi NNE 10.4 mph 25.3 mph 0.02 in Rain Light Rain
1:54 PM 48.9 °F - 48.0 °F 97% 29.02 in 4.0 mi North 13.8 mph 25.3 mph 0.02 in Rain Light Rain
2:03 PM 48.2 °F - 48.2 °F 100% 29.01 in 2.5 mi North 16.1 mph 26.5 mph 0.02 in Rain Light Rain
2:11 PM 48.2 °F - 48.2 °F 100% 29.01 in 5.0 mi North 16.1 mph 26.5 mph 0.02 in Rain Light Rain
2:41 PM 48.2 °F - 48.2 °F 100% 29.01 in 2.5 mi North 11.5 mph 21.9 mph 0.03 in Rain Light Rain
2:54 PM 48.9 °F - 48.0 °F 97% 29.02 in 2.5 mi North 9.2 mph - 0.04 in Rain Light Rain
3:16 PM 48.2 °F - 48.2 °F 100% 29.00 in 3.0 mi North 9.2 mph 19.6 mph 0.01 in Rain Light Rain
3:34 PM 48.2 °F - 48.2 °F 100% 29.00 in 4.0 mi NNW 8.1 mph 17.3 mph 0.01 in   Overcast
3:54 PM 48.0 °F - 46.9 °F 96% 29.01 in 5.0 mi North 9.2 mph 19.6 mph 0.01 in   Overcast
4:54 PM 48.0 °F - 46.9 °F 96% 29.01 in 6.0 mi North 10.4 mph 21.9 mph 0.01 in   Overcast
5:54 PM 48.0 °F - 46.9 °F 96% 29.05 in 4.0 mi Variable 6.9 mph 18.4 mph 0.01 in Rain Light Rain
6:03 PM 46.4 °F 44.3 °F 46.4 °F 100% 29.05 in 1.8 mi Variable 4.6 mph 16.1 mph 0.04 in Rain Light Rain
6:12 PM 46.4 °F 43.5 °F 46.4 °F 100% 29.06 in 2.0 mi Variable 5.8 mph 16.1 mph 0.05 in Rain Light Rain
6:22 PM 46.4 °F 42.9 °F 46.4 °F 100% 29.06 in 3.0 mi Variable 6.9 mph - 0.06 in Rain Light Rain
6:29 PM 46.4 °F 44.3 °F 46.4 °F 100% 29.07 in 5.0 mi Variable 4.6 mph - 0.06 in   Overcast
6:54 PM 46.0 °F 43.1 °F 45.0 °F 96% 29.09 in 5.0 mi NE 5.8 mph - 0.06 in   Overcast
7:54 PM 46.0 °F 41.4 °F 44.1 °F 93% 29.12 in 10.0 mi North 9.2 mph 16.1 mph N/A   Overcast
8:10 PM 46.4 °F 43.5 °F 44.6 °F 93% 29.12 in 10.0 mi North 5.8 mph - N/A   Overcast
8:22 PM 44.6 °F 42.2 °F 44.6 °F 100% 29.13 in 8.0 mi North 4.6 mph - 0.00 in Rain Light Rain
8:40 PM 44.6 °F 40.7 °F 44.6 °F 100% 29.14 in 6.0 mi North 6.9 mph 16.1 mph 0.00 in Rain Light Rain
8:47 PM 44.6 °F 41.4 °F 44.6 °F 100% 29.14 in 3.0 mi North 5.8 mph - 0.01 in Rain Light Rain
8:54 PM 45.0 °F 41.2 °F 44.1 °F 97% 29.16 in 5.0 mi North 6.9 mph - 0.01 in Rain Light Rain
9:23 PM 46.4 °F 41.9 °F 44.6 °F 93% 29.16 in 8.0 mi North 9.2 mph - 0.00 in   Overcast
9:30 PM 46.4 °F 42.4 °F 44.6 °F 93% 29.17 in 10.0 mi North 8.1 mph - 0.00 in   Overcast
9:45 PM 46.4 °F 43.5 °F 44.6 °F 93% 29.17 in 10.0 mi North 5.8 mph - 0.00 in   Overcast
9:54 PM 45.0 °F 40.6 °F 44.1 °F 97% 29.19 in 10.0 mi North 8.1 mph - 0.00 in   Overcast
10:17 PM 44.6 °F 40.7 °F 44.6 °F 100% 29.19 in 3.0 mi Variable 6.9 mph - 0.01 in Rain Light Rain
10:27 PM 44.6 °F 40.2 °F 44.6 °F 100% 29.20 in 2.0 mi NNE 8.1 mph 17.3 mph 0.04 in Rain Rain
10:39 PM 44.6 °F 38.8 °F 44.6 °F 100% 29.20 in 2.0 mi North 11.5 mph 19.6 mph 0.08 in Rain Rain
10:54 PM 44.1 °F 40.8 °F 43.0 °F 96% 29.21 in 2.0 mi North 5.8 mph - 0.12 in Rain Light Rain
11:05 PM 44.6 °F 41.4 °F 42.8 °F 93% 29.21 in 3.0 mi North 5.8 mph - 0.01 in Rain Light Rain
11:54 PM 44.1 °F 39.0 °F 42.1 °F 93% 29.24 in 10.0 mi NW 9.2 mph - 0.02 in   Overcast